PWSweather.com
Personal Weather Stations
Station Observations

ChardChardGB

Lat: 50.877408, Lon: -2.94964741

Elevation: 341

Station Type: WS3083

http://www.merriott-astro.co.uk/weather/index.htm

High Low Average
Temperature 64.9°F18.3°C 57.0°F13.9°C 61.1°F16.2°C
Dew Point 61.9°F16.6°C 53.2°F11.8°C 58.2°F14.6°C
Winds 10.7 mph 17.2 kmh 0.4 mph 0.6 kmh 5.0 mph S8.0 kmh S
Wind Gusts 15.9 mph25.6 kmh 0.7 mph1.1 kmh 7.0 mph11.3 kmh
Humidity 99% 72% 90%
Pressure 29.13 in986.5 mb 28.93 in979.7 mb -
Precipitation 0.41 in10.4 mm - -
Hour Temp Dew Point Humidity Winds Wind Gusts Pressure Precip Precip Rate Daily Precip Total
12:00 AM 63.3°F17.4°C 59.4°F15.2°C 87% 0.5 mph SSW0.8 kmh SSW 0.7 mph1.1 kmh 29.00 in982.1 mb 0.00 in0.0 mm 0.00 in0.0 mm 0.00 in0.0 mm
12:10 AM 63.5°F17.5°C 58.6°F14.8°C 84% 0.9 mph S1.4 kmh S 1.6 mph2.6 kmh 29.00 in982.1 mb 0.00 in0.0 mm 0.00 in0.0 mm 0.00 in0.0 mm
12:20 AM 63.5°F17.5°C 59.3°F15.2°C 86% 0.6 mph S1.0 kmh S 0.7 mph1.1 kmh 29.00 in982.1 mb 0.00 in0.0 mm 0.00 in0.0 mm 0.00 in0.0 mm
12:30 AM 63.7°F17.6°C 59.4°F15.2°C 86% 1.6 mph S2.6 kmh S 2.2 mph3.5 kmh 29.00 in982.1 mb 0.00 in0.0 mm 0.00 in0.0 mm 0.00 in0.0 mm
12:40 AM 63.7°F17.6°C 59.4°F15.2°C 86% 1.1 mph WSW1.8 kmh WSW 1.6 mph2.6 kmh 28.99 in981.7 mb 0.00 in0.0 mm 0.00 in0.0 mm 0.00 in0.0 mm
12:50 AM 63.5°F17.5°C 59.6°F15.3°C 87% 1.4 mph SSE2.3 kmh SSE 3.1 mph5.0 kmh 28.98 in981.4 mb 0.00 in0.0 mm 0.00 in0.0 mm 0.00 in0.0 mm
01:00 AM 63.5°F17.5°C 59.9°F15.5°C 88% 0.4 mph S0.6 kmh S 1.6 mph2.6 kmh 28.98 in981.4 mb 0.00 in0.0 mm 0.00 in0.0 mm 0.00 in0.0 mm
01:10 AM 63.7°F17.6°C 60.7°F15.9°C 90% 1.4 mph SW2.3 kmh SW 3.1 mph5.0 kmh 28.99 in981.7 mb 0.01 in0.3 mm 0.06 in1.5 mm 0.01 in0.3 mm
01:20 AM 63.7°F17.6°C 61.0°F16.1°C 91% 2.5 mph S4.0 kmh S 3.8 mph6.1 kmh 28.98 in981.4 mb 0.04 in1.0 mm 0.18 in4.6 mm 0.04 in1.0 mm
01:30 AM 64.0°F17.8°C 61.7°F16.5°C 92% 3.0 mph SE4.8 kmh SE 6.9 mph11.1 kmh 28.98 in981.4 mb 0.04 in1.0 mm 0.00 in0.0 mm 0.04 in1.0 mm
01:40 AM 64.0°F17.8°C 61.7°F16.5°C 92% 2.3 mph S3.7 kmh S 4.5 mph7.2 kmh 28.98 in981.4 mb 0.04 in1.0 mm 0.00 in0.0 mm 0.04 in1.0 mm
01:50 AM 63.9°F17.7°C 61.8°F16.6°C 93% 2.0 mph ESE3.2 kmh ESE 3.8 mph6.1 kmh 28.97 in981.0 mb 0.04 in1.0 mm 0.00 in0.0 mm 0.04 in1.0 mm
02:00 AM 63.7°F17.6°C 61.6°F16.4°C 93% 3.5 mph SSW5.6 kmh SSW 9.2 mph14.8 kmh 28.97 in981.0 mb 0.04 in1.0 mm 0.00 in0.0 mm 0.04 in1.0 mm
02:10 AM 63.5°F17.5°C 61.5°F16.4°C 93% 2.0 mph SW3.2 kmh SW 4.5 mph7.2 kmh 28.97 in981.0 mb 0.02 in0.5 mm 0.00 in0.0 mm 0.04 in1.0 mm
02:20 AM 63.1°F17.3°C 61.7°F16.5°C 95% 1.3 mph W2.1 kmh W 2.2 mph3.5 kmh 28.96 in980.7 mb 0.00 in0.0 mm 0.00 in0.0 mm 0.04 in1.0 mm
02:30 AM 63.1°F17.3°C 61.7°F16.5°C 95% 1.0 mph SW1.6 kmh SW 1.6 mph2.6 kmh 28.96 in980.7 mb 0.00 in0.0 mm 0.00 in0.0 mm 0.04 in1.0 mm
02:40 AM 63.1°F17.3°C 61.7°F16.5°C 95% 1.7 mph SSW2.7 kmh SSW 3.1 mph5.0 kmh 28.95 in980.4 mb 0.00 in0.0 mm 0.00 in0.0 mm 0.04 in1.0 mm
02:50 AM 63.3°F17.4°C 61.9°F16.6°C 95% 1.7 mph S2.7 kmh S 3.8 mph6.1 kmh 28.96 in980.7 mb 0.00 in0.0 mm 0.00 in0.0 mm 0.04 in1.0 mm
03:00 AM 63.5°F17.5°C 61.2°F16.2°C 92% 2.1 mph SW3.4 kmh SW 4.5 mph7.2 kmh 28.95 in980.4 mb 0.00 in0.0 mm 0.00 in0.0 mm 0.04 in1.0 mm
03:10 AM 63.3°F17.4°C 61.3°F16.3°C 93% 1.5 mph SW2.4 kmh SW 2.2 mph3.5 kmh 28.95 in980.4 mb 0.00 in0.0 mm 0.00 in0.0 mm 0.04 in1.0 mm
03:20 AM 63.3°F17.4°C 61.3°F16.3°C 93% 2.3 mph SSW3.7 kmh SSW 3.8 mph6.1 kmh 28.95 in980.4 mb 0.00 in0.0 mm 0.00 in0.0 mm 0.04 in1.0 mm
03:30 AM 63.5°F17.5°C 60.5°F15.8°C 90% 3.5 mph SSW5.6 kmh SSW 5.4 mph8.7 kmh 28.94 in980.0 mb 0.00 in0.0 mm 0.00 in0.0 mm 0.04 in1.0 mm
03:40 AM 64.2°F17.9°C 60.3°F15.7°C 87% 3.8 mph SSE6.1 kmh SSE 6.0 mph9.7 kmh 28.94 in980.0 mb 0.00 in0.0 mm 0.00 in0.0 mm 0.04 in1.0 mm
03:50 AM 64.8°F18.2°C 60.2°F15.7°C 85% 5.8 mph SSE9.3 kmh SSE 7.6 mph12.2 kmh 28.94 in980.0 mb 0.00 in0.0 mm 0.00 in0.0 mm 0.04 in1.0 mm
04:00 AM 64.9°F18.3°C 60.0°F15.6°C 84% 4.6 mph S7.4 kmh S 7.6 mph12.2 kmh 28.94 in980.0 mb 0.00 in0.0 mm 0.00 in0.0 mm 0.04 in1.0 mm
04:10 AM 64.9°F18.3°C 60.0°F15.6°C 84% 5.2 mph SW8.4 kmh SW 8.3 mph13.4 kmh 28.93 in979.7 mb 0.00 in0.0 mm 0.00 in0.0 mm 0.04 in1.0 mm
04:20 AM 64.8°F18.2°C 60.2°F15.7°C 85% 5.9 mph SSE9.5 kmh SSE 9.2 mph14.8 kmh 28.93 in979.7 mb 0.00 in0.0 mm 0.00 in0.0 mm 0.04 in1.0 mm
04:30 AM 64.6°F18.1°C 60.3°F15.7°C 86% 4.6 mph S7.4 kmh S 6.0 mph9.7 kmh 28.93 in979.7 mb 0.00 in0.0 mm 0.00 in0.0 mm 0.04 in1.0 mm
04:40 AM 64.4°F18.0°C 60.5°F15.8°C 87% 7.5 mph S12.1 kmh S 10.7 mph17.2 kmh 28.93 in979.7 mb 0.00 in0.0 mm 0.00 in0.0 mm 0.04 in1.0 mm
04:50 AM 63.9°F17.7°C 60.6°F15.9°C 89% 10.6 mph SW17.1 kmh SW 15.2 mph24.5 kmh 28.93 in979.7 mb 0.00 in0.0 mm 0.00 in0.0 mm 0.04 in1.0 mm
05:00 AM 63.5°F17.5°C 60.5°F15.8°C 90% 5.5 mph S8.9 kmh S 8.3 mph13.4 kmh 28.94 in980.0 mb 0.00 in0.0 mm 0.00 in0.0 mm 0.04 in1.0 mm
05:10 AM 63.5°F17.5°C 60.2°F15.7°C 89% 3.4 mph SW5.5 kmh SW 5.4 mph8.7 kmh 28.94 in980.0 mb 0.00 in0.0 mm 0.00 in0.0 mm 0.04 in1.0 mm
05:20 AM 63.5°F17.5°C 59.3°F15.2°C 86% 4.4 mph S7.1 kmh S 6.9 mph11.1 kmh 28.95 in980.4 mb 0.00 in0.0 mm 0.00 in0.0 mm 0.04 in1.0 mm
05:30 AM 62.6°F17.0°C 59.3°F15.2°C 89% 5.7 mph SSW9.2 kmh SSW 7.6 mph12.2 kmh 28.95 in980.4 mb 0.06 in1.5 mm 0.36 in9.1 mm 0.09 in2.3 mm
05:40 AM 61.3°F16.3°C 59.0°F15.0°C 92% 2.6 mph S4.2 kmh S 5.4 mph8.7 kmh 28.94 in980.0 mb 0.08 in2.0 mm 0.12 in3.0 mm 0.12 in3.0 mm
05:50 AM 61.0°F16.1°C 59.3°F15.2°C 94% 2.2 mph SSE3.5 kmh SSE 3.1 mph5.0 kmh 28.95 in980.4 mb 0.08 in2.0 mm 0.00 in0.0 mm 0.12 in3.0 mm
06:00 AM 60.6°F15.9°C 59.2°F15.1°C 95% 1.5 mph SE2.4 kmh SE 3.8 mph6.1 kmh 28.95 in980.4 mb 0.08 in2.0 mm 0.00 in0.0 mm 0.12 in3.0 mm
06:10 AM 60.3°F15.7°C 59.1°F15.1°C 96% 0.9 mph SE1.4 kmh SE 2.2 mph3.5 kmh 28.95 in980.4 mb 0.11 in2.8 mm 0.18 in4.6 mm 0.14 in3.6 mm
06:20 AM 60.3°F15.7°C 59.4°F15.2°C 97% 1.4 mph E2.3 kmh E 3.8 mph6.1 kmh 28.95 in980.4 mb 0.11 in2.8 mm 0.00 in0.0 mm 0.14 in3.6 mm
06:30 AM 60.1°F15.6°C 59.8°F15.4°C 99% 1.8 mph S2.9 kmh S 3.8 mph6.1 kmh 28.95 in980.4 mb 0.06 in1.5 mm 0.00 in0.0 mm 0.15 in3.8 mm
06:40 AM 59.9°F15.5°C 59.6°F15.3°C 99% 1.2 mph SE1.9 kmh SE 2.2 mph3.5 kmh 28.95 in980.4 mb 0.04 in1.0 mm 0.00 in0.0 mm 0.15 in3.8 mm
06:50 AM 59.9°F15.5°C 59.6°F15.3°C 99% 1.4 mph SE2.3 kmh SE 2.2 mph3.5 kmh 28.94 in980.0 mb 0.05 in1.3 mm 0.06 in1.5 mm 0.17 in4.3 mm
07:00 AM 59.7°F15.4°C 59.5°F15.3°C 99% 2.3 mph S3.7 kmh S 3.8 mph6.1 kmh 28.94 in980.0 mb 0.06 in1.5 mm 0.01 in0.3 mm 0.18 in4.6 mm
07:10 AM 59.7°F15.4°C 59.5°F15.3°C 99% 1.6 mph S2.6 kmh S 3.1 mph5.0 kmh 28.94 in980.0 mb 0.04 in1.0 mm 0.00 in0.0 mm 0.18 in4.6 mm
07:20 AM 59.7°F15.4°C 59.5°F15.3°C 99% 3.0 mph S4.8 kmh S 6.0 mph9.7 kmh 28.96 in980.7 mb 0.04 in1.0 mm 0.00 in0.0 mm 0.18 in4.6 mm
07:30 AM 59.7°F15.4°C 59.5°F15.3°C 99% 4.2 mph SSW6.8 kmh SSW 7.6 mph12.2 kmh 28.96 in980.7 mb 0.02 in0.5 mm 0.00 in0.0 mm 0.18 in4.6 mm
07:40 AM 59.7°F15.4°C 59.5°F15.3°C 99% 2.3 mph S3.7 kmh S 4.5 mph7.2 kmh 28.96 in980.7 mb 0.02 in0.5 mm 0.00 in0.0 mm 0.18 in4.6 mm
07:50 AM 59.7°F15.4°C 59.5°F15.3°C 99% 4.1 mph S6.6 kmh S 6.0 mph9.7 kmh 28.97 in981.0 mb 0.01 in0.3 mm 0.00 in0.0 mm 0.18 in4.6 mm
08:00 AM 59.9°F15.5°C 59.6°F15.3°C 99% 3.5 mph SW5.6 kmh SW 5.4 mph8.7 kmh 28.96 in980.7 mb 0.00 in0.0 mm 0.00 in0.0 mm 0.18 in4.6 mm
08:10 AM 60.1°F15.6°C 59.8°F15.4°C 99% 2.7 mph S4.3 kmh S 5.4 mph8.7 kmh 28.97 in981.0 mb 0.00 in0.0 mm 0.00 in0.0 mm 0.18 in4.6 mm
08:20 AM 60.3°F15.7°C 60.0°F15.6°C 99% 1.7 mph SSE2.7 kmh SSE 3.1 mph5.0 kmh 28.96 in980.7 mb 0.01 in0.3 mm 0.06 in1.5 mm 0.19 in4.8 mm
08:30 AM 60.4°F15.8°C 60.2°F15.7°C 99% 1.0 mph ESE1.6 kmh ESE 3.1 mph5.0 kmh 28.95 in980.4 mb 0.01 in0.3 mm 0.00 in0.0 mm 0.19 in4.8 mm
08:40 AM 60.4°F15.8°C 60.2°F15.7°C 99% 1.2 mph E1.9 kmh E 2.2 mph3.5 kmh 28.95 in980.4 mb 0.01 in0.3 mm 0.00 in0.0 mm 0.19 in4.8 mm
08:50 AM 60.3°F15.7°C 60.0°F15.6°C 99% 1.2 mph S1.9 kmh S 4.5 mph7.2 kmh 28.96 in980.7 mb 0.02 in0.5 mm 0.06 in1.5 mm 0.20 in5.1 mm
09:00 AM 60.3°F15.7°C 60.0°F15.6°C 99% 5.3 mph S8.5 kmh S 7.6 mph12.2 kmh 28.98 in981.4 mb 0.02 in0.5 mm 0.00 in0.0 mm 0.20 in5.1 mm
09:10 AM 60.4°F15.8°C 60.2°F15.7°C 99% 3.5 mph S5.6 kmh S 6.0 mph9.7 kmh 28.98 in981.4 mb 0.02 in0.5 mm 0.00 in0.0 mm 0.20 in5.1 mm
09:20 AM 60.4°F15.8°C 60.2°F15.7°C 99% 3.7 mph S6.0 kmh S 5.4 mph8.7 kmh 28.97 in981.0 mb 0.07 in1.8 mm 0.30 in7.6 mm 0.26 in6.6 mm
09:30 AM 60.3°F15.7°C 60.0°F15.6°C 99% 2.3 mph SSW3.7 kmh SSW 4.5 mph7.2 kmh 28.97 in981.0 mb 0.09 in2.3 mm 0.12 in3.0 mm 0.28 in7.1 mm
09:40 AM 60.8°F16.0°C 60.5°F15.8°C 99% 3.3 mph S5.3 kmh S 5.4 mph8.7 kmh 28.98 in981.4 mb 0.09 in2.3 mm 0.00 in0.0 mm 0.28 in7.1 mm
09:50 AM 61.5°F16.4°C 61.3°F16.3°C 99% 5.2 mph S8.4 kmh S 9.8 mph15.8 kmh 28.97 in981.0 mb 0.08 in2.0 mm 0.00 in0.0 mm 0.28 in7.1 mm
10:00 AM 62.1°F16.7°C 61.8°F16.6°C 99% 4.5 mph SSW7.2 kmh SSW 8.3 mph13.4 kmh 28.97 in981.0 mb 0.08 in2.0 mm 0.00 in0.0 mm 0.28 in7.1 mm
10:10 AM 61.9°F16.6°C 60.7°F15.9°C 96% 6.5 mph S10.5 kmh S 9.2 mph14.8 kmh 28.97 in981.0 mb 0.08 in2.0 mm 0.00 in0.0 mm 0.28 in7.1 mm
10:20 AM 61.9°F16.6°C 60.5°F15.8°C 95% 5.5 mph S8.9 kmh S 6.9 mph11.1 kmh 28.96 in980.7 mb 0.02 in0.5 mm 0.00 in0.0 mm 0.28 in7.1 mm
10:30 AM 61.9°F16.6°C 60.5°F15.8°C 95% 7.1 mph SSW11.4 kmh SSW 9.2 mph14.8 kmh 28.97 in981.0 mb 0.00 in0.0 mm 0.00 in0.0 mm 0.28 in7.1 mm
10:40 AM 62.4°F16.9°C 61.3°F16.3°C 96% 5.9 mph S9.5 kmh S 13.0 mph20.9 kmh 28.97 in981.0 mb 0.00 in0.0 mm 0.00 in0.0 mm 0.28 in7.1 mm
10:50 AM 62.2°F16.8°C 60.2°F15.7°C 93% 9.3 mph S15.0 kmh S 14.5 mph23.3 kmh 28.98 in981.4 mb 0.01 in0.3 mm 0.06 in1.5 mm 0.30 in7.6 mm
11:00 AM 62.2°F16.8°C 59.9°F15.5°C 92% 7.9 mph S12.7 kmh S 13.0 mph20.9 kmh 28.98 in981.4 mb 0.01 in0.3 mm 0.00 in0.0 mm 0.30 in7.6 mm
11:10 AM 62.2°F16.8°C 59.9°F15.5°C 92% 5.8 mph SSW9.3 kmh SSW 8.3 mph13.4 kmh 28.97 in981.0 mb 0.01 in0.3 mm 0.00 in0.0 mm 0.30 in7.6 mm
11:20 AM 61.9°F16.6°C 59.5°F15.3°C 92% 6.2 mph SSW10.0 kmh SSW 10.7 mph17.2 kmh 28.98 in981.4 mb 0.01 in0.3 mm 0.00 in0.0 mm 0.30 in7.6 mm
11:30 AM 62.6°F17.0°C 60.6°F15.9°C 93% 6.3 mph S10.1 kmh S 9.8 mph15.8 kmh 28.98 in981.4 mb 0.01 in0.3 mm 0.00 in0.0 mm 0.30 in7.6 mm
11:40 AM 63.3°F17.4°C 60.0°F15.6°C 89% 8.3 mph SW13.4 kmh SW 10.7 mph17.2 kmh 28.98 in981.4 mb 0.01 in0.3 mm 0.00 in0.0 mm 0.30 in7.6 mm
11:50 AM 63.1°F17.3°C 58.9°F14.9°C 86% 7.0 mph S11.3 kmh S 12.1 mph19.5 kmh 28.98 in981.4 mb 0.00 in0.0 mm 0.00 in0.0 mm 0.30 in7.6 mm
12:00 PM 63.0°F17.2°C 59.0°F15.0°C 87% 8.9 mph SW14.3 kmh SW 11.4 mph18.3 kmh 28.98 in981.4 mb 0.00 in0.0 mm 0.00 in0.0 mm 0.30 in7.6 mm
12:10 PM 63.5°F17.5°C 58.6°F14.8°C 84% 5.9 mph S9.5 kmh S 10.7 mph17.2 kmh 28.98 in981.4 mb 0.00 in0.0 mm 0.00 in0.0 mm 0.30 in7.6 mm
12:20 PM 64.2°F17.9°C 58.3°F14.6°C 81% 10.7 mph S17.2 kmh S 14.5 mph23.3 kmh 28.98 in981.4 mb 0.00 in0.0 mm 0.00 in0.0 mm 0.30 in7.6 mm
12:30 PM 64.0°F17.8°C 57.4°F14.1°C 79% 8.7 mph SW14.0 kmh SW 12.1 mph19.5 kmh 28.98 in981.4 mb 0.00 in0.0 mm 0.00 in0.0 mm 0.30 in7.6 mm
12:40 PM 64.2°F17.9°C 57.6°F14.2°C 79% 7.8 mph S12.6 kmh S 9.2 mph14.8 kmh 28.99 in981.7 mb 0.00 in0.0 mm 0.00 in0.0 mm 0.30 in7.6 mm
12:50 PM 64.0°F17.8°C 56.7°F13.7°C 77% 7.2 mph S11.6 kmh S 13.0 mph20.9 kmh 28.98 in981.4 mb 0.00 in0.0 mm 0.00 in0.0 mm 0.30 in7.6 mm
01:00 PM 63.7°F17.6°C 56.7°F13.7°C 78% 7.7 mph S12.4 kmh S 10.7 mph17.2 kmh 28.98 in981.4 mb 0.00 in0.0 mm 0.00 in0.0 mm 0.30 in7.6 mm
01:10 PM 62.6°F17.0°C 57.0°F13.9°C 82% 6.8 mph S10.9 kmh S 10.7 mph17.2 kmh 28.99 in981.7 mb 0.01 in0.3 mm 0.06 in1.5 mm 0.31 in7.9 mm
01:20 PM 61.5°F16.4°C 58.3°F14.6°C 89% 4.4 mph SSW7.1 kmh SSW 9.2 mph14.8 kmh 28.98 in981.4 mb 0.05 in1.3 mm 0.24 in6.1 mm 0.34 in8.6 mm
01:30 PM 61.9°F16.6°C 59.5°F15.3°C 92% 5.1 mph S8.2 kmh S 8.3 mph13.4 kmh 28.99 in981.7 mb 0.08 in2.0 mm 0.18 in4.6 mm 0.38 in9.7 mm
01:40 PM 60.8°F16.0°C 58.5°F14.7°C 92% 7.7 mph SW12.4 kmh SW 13.0 mph20.9 kmh 28.98 in981.4 mb 0.12 in3.0 mm 0.24 in6.1 mm 0.41 in10.4 mm
01:50 PM 60.8°F16.0°C 58.8°F14.9°C 93% 6.2 mph S10.0 kmh S 9.8 mph15.8 kmh 28.99 in981.7 mb 0.12 in3.0 mm 0.00 in0.0 mm 0.41 in10.4 mm
02:00 PM 61.0°F16.1°C 59.0°F15.0°C 93% 6.7 mph SSW10.8 kmh SSW 9.8 mph15.8 kmh 28.98 in981.4 mb 0.12 in3.0 mm 0.00 in0.0 mm 0.41 in10.4 mm
02:10 PM 62.4°F16.9°C 60.7°F15.9°C 94% 3.9 mph SW6.3 kmh SW 5.4 mph8.7 kmh 29.00 in982.1 mb 0.09 in2.3 mm 0.00 in0.0 mm 0.41 in10.4 mm
02:20 PM 63.9°F17.7°C 58.6°F14.8°C 83% 6.4 mph SW10.3 kmh SW 9.8 mph15.8 kmh 28.99 in981.7 mb 0.07 in1.8 mm 0.00 in0.0 mm 0.41 in10.4 mm
02:30 PM 63.9°F17.7°C 57.9°F14.4°C 81% 7.9 mph SSW12.7 kmh SSW 11.4 mph18.3 kmh 29.00 in982.1 mb 0.02 in0.5 mm 0.00 in0.0 mm 0.41 in10.4 mm
02:40 PM 63.9°F17.7°C 56.5°F13.6°C 77% 9.8 mph SSW15.8 kmh SSW 14.5 mph23.3 kmh 28.98 in981.4 mb 0.00 in0.0 mm 0.00 in0.0 mm 0.41 in10.4 mm
02:50 PM 64.9°F18.3°C 56.8°F13.8°C 75% 9.1 mph SSW14.6 kmh SSW 14.5 mph23.3 kmh 28.99 in981.7 mb 0.00 in0.0 mm 0.00 in0.0 mm 0.41 in10.4 mm
03:00 PM 63.3°F17.4°C 57.1°F13.9°C 80% 9.4 mph S15.1 kmh S 12.1 mph19.5 kmh 28.99 in981.7 mb 0.00 in0.0 mm 0.00 in0.0 mm 0.41 in10.4 mm
03:10 PM 62.4°F16.9°C 56.5°F13.6°C 81% 7.0 mph SW11.3 kmh SW 9.8 mph15.8 kmh 28.99 in981.7 mb 0.00 in0.0 mm 0.00 in0.0 mm 0.41 in10.4 mm
03:20 PM 62.2°F16.8°C 57.0°F13.9°C 83% 7.8 mph S12.6 kmh S 11.4 mph18.3 kmh 29.00 in982.1 mb 0.00 in0.0 mm 0.00 in0.0 mm 0.41 in10.4 mm
03:30 PM 62.6°F17.0°C 56.7°F13.7°C 81% 6.8 mph SSW10.9 kmh SSW 9.8 mph15.8 kmh 28.99 in981.7 mb 0.00 in0.0 mm 0.00 in0.0 mm 0.41 in10.4 mm
03:40 PM 63.3°F17.4°C 56.7°F13.7°C 79% 9.0 mph SW14.5 kmh SW 15.9 mph25.6 kmh 29.00 in982.1 mb 0.00 in0.0 mm 0.00 in0.0 mm 0.41 in10.4 mm
03:50 PM 62.4°F16.9°C 55.8°F13.2°C 79% 6.8 mph SSE10.9 kmh SSE 9.8 mph15.8 kmh 29.00 in982.1 mb 0.00 in0.0 mm 0.00 in0.0 mm 0.41 in10.4 mm
04:00 PM 61.9°F16.6°C 55.3°F12.9°C 79% 7.1 mph S11.4 kmh S 13.0 mph20.9 kmh 28.99 in981.7 mb 0.00 in0.0 mm 0.00 in0.0 mm 0.41 in10.4 mm
04:10 PM 61.3°F16.3°C 55.1°F12.8°C 80% 7.7 mph SSW12.4 kmh SSW 13.0 mph20.9 kmh 29.00 in982.1 mb 0.00 in0.0 mm 0.00 in0.0 mm 0.41 in10.4 mm
04:20 PM 63.0°F17.2°C 57.1°F13.9°C 81% 6.1 mph S9.8 kmh S 10.7 mph17.2 kmh 28.99 in981.7 mb 0.00 in0.0 mm 0.00 in0.0 mm 0.41 in10.4 mm
04:30 PM 63.7°F17.6°C 54.5°F12.5°C 72% 6.6 mph SW10.6 kmh SW 9.2 mph14.8 kmh 29.00 in982.1 mb 0.00 in0.0 mm 0.00 in0.0 mm 0.41 in10.4 mm
04:40 PM 62.4°F16.9°C 55.1°F12.8°C 77% 9.2 mph S14.8 kmh S 12.1 mph19.5 kmh 28.98 in981.4 mb 0.00 in0.0 mm 0.00 in0.0 mm 0.41 in10.4 mm
04:50 PM 61.0°F16.1°C 54.8°F12.7°C 80% 6.8 mph SSW10.9 kmh SSW 9.8 mph15.8 kmh 29.00 in982.1 mb 0.00 in0.0 mm 0.00 in0.0 mm 0.41 in10.4 mm
05:00 PM 60.4°F15.8°C 55.3°F12.9°C 83% 8.7 mph SW14.0 kmh SW 12.1 mph19.5 kmh 28.99 in981.7 mb 0.00 in0.0 mm 0.00 in0.0 mm 0.41 in10.4 mm
05:10 PM 60.3°F15.7°C 55.4°F13.0°C 84% 8.2 mph S13.2 kmh S 15.2 mph24.5 kmh 29.00 in982.1 mb 0.00 in0.0 mm 0.00 in0.0 mm 0.41 in10.4 mm
05:20 PM 60.3°F15.7°C 55.4°F13.0°C 84% 8.1 mph SSW13.0 kmh SSW 11.4 mph18.3 kmh 29.00 in982.1 mb 0.00 in0.0 mm 0.00 in0.0 mm 0.41 in10.4 mm
05:30 PM 59.9°F15.5°C 55.1°F12.8°C 84% 6.2 mph S10.0 kmh S 10.7 mph17.2 kmh 29.00 in982.1 mb 0.00 in0.0 mm 0.00 in0.0 mm 0.41 in10.4 mm
05:40 PM 59.4°F15.2°C 55.2°F12.9°C 86% 5.9 mph SSW9.5 kmh SSW 10.7 mph17.2 kmh 29.01 in982.4 mb 0.00 in0.0 mm 0.00 in0.0 mm 0.41 in10.4 mm
05:50 PM 59.4°F15.2°C 55.5°F13.1°C 87% 4.3 mph S6.9 kmh S 8.3 mph13.4 kmh 29.01 in982.4 mb 0.00 in0.0 mm 0.00 in0.0 mm 0.41 in10.4 mm
06:00 PM 59.2°F15.1°C 55.3°F12.9°C 87% 5.0 mph S8.0 kmh S 8.3 mph13.4 kmh 29.02 in982.7 mb 0.00 in0.0 mm 0.00 in0.0 mm 0.41 in10.4 mm
06:10 PM 59.0°F15.0°C 55.5°F13.1°C 88% 6.0 mph S9.7 kmh S 9.2 mph14.8 kmh 29.02 in982.7 mb 0.00 in0.0 mm 0.00 in0.0 mm 0.41 in10.4 mm
06:20 PM 58.6°F14.8°C 55.4°F13.0°C 89% 6.1 mph S9.8 kmh S 7.6 mph12.2 kmh 29.02 in982.7 mb 0.00 in0.0 mm 0.00 in0.0 mm 0.41 in10.4 mm
06:30 PM 58.3°F14.6°C 55.4°F13.0°C 90% 5.1 mph SSW8.2 kmh SSW 6.9 mph11.1 kmh 29.02 in982.7 mb 0.00 in0.0 mm 0.00 in0.0 mm 0.41 in10.4 mm
06:40 PM 57.9°F14.4°C 55.3°F12.9°C 91% 2.6 mph SW4.2 kmh SW 6.0 mph9.7 kmh 29.03 in983.1 mb 0.00 in0.0 mm 0.00 in0.0 mm 0.41 in10.4 mm
06:50 PM 57.6°F14.2°C 55.3°F12.9°C 92% 2.5 mph S4.0 kmh S 3.8 mph6.1 kmh 29.02 in982.7 mb 0.00 in0.0 mm 0.00 in0.0 mm 0.41 in10.4 mm
07:00 PM 57.4°F14.1°C 55.4°F13.0°C 93% 2.4 mph S3.9 kmh S 3.1 mph5.0 kmh 29.02 in982.7 mb 0.00 in0.0 mm 0.00 in0.0 mm 0.41 in10.4 mm
07:10 PM 57.0°F13.9°C 55.3°F12.9°C 94% 2.8 mph SSW4.5 kmh SSW 4.5 mph7.2 kmh 29.03 in983.1 mb 0.00 in0.0 mm 0.00 in0.0 mm 0.41 in10.4 mm
07:20 PM 57.2°F14.0°C 55.8°F13.2°C 95% 2.5 mph SW4.0 kmh SW 4.5 mph7.2 kmh 29.03 in983.1 mb 0.00 in0.0 mm 0.00 in0.0 mm 0.41 in10.4 mm
07:30 PM 57.0°F13.9°C 55.9°F13.3°C 96% 1.9 mph S3.1 kmh S 3.1 mph5.0 kmh 29.04 in983.4 mb 0.00 in0.0 mm 0.00 in0.0 mm 0.41 in10.4 mm
07:40 PM 57.0°F13.9°C 56.2°F13.4°C 97% 2.6 mph SSW4.2 kmh SSW 3.8 mph6.1 kmh 29.03 in983.1 mb 0.00 in0.0 mm 0.00 in0.0 mm 0.41 in10.4 mm
07:50 PM 57.0°F13.9°C 56.2°F13.4°C 97% 2.3 mph SW3.7 kmh SW 3.8 mph6.1 kmh 29.05 in983.7 mb 0.00 in0.0 mm 0.00 in0.0 mm 0.41 in10.4 mm
08:00 PM 57.0°F13.9°C 56.2°F13.4°C 97% 3.5 mph S5.6 kmh S 6.0 mph9.7 kmh 29.04 in983.4 mb 0.00 in0.0 mm 0.00 in0.0 mm 0.41 in10.4 mm
08:10 PM 57.2°F14.0°C 56.4°F13.6°C 97% 4.5 mph S7.2 kmh S 6.9 mph11.1 kmh 29.05 in983.7 mb 0.00 in0.0 mm 0.00 in0.0 mm 0.41 in10.4 mm
08:20 PM 57.2°F14.0°C 56.1°F13.4°C 96% 3.2 mph S5.1 kmh S 4.5 mph7.2 kmh 29.05 in983.7 mb 0.00 in0.0 mm 0.00 in0.0 mm 0.41 in10.4 mm
08:30 PM 57.0°F13.9°C 55.6°F13.1°C 95% 1.3 mph S2.1 kmh S 3.1 mph5.0 kmh 29.05 in983.7 mb 0.00 in0.0 mm 0.00 in0.0 mm 0.41 in10.4 mm
08:40 PM 57.0°F13.9°C 55.6°F13.1°C 95% 2.8 mph SSW4.5 kmh SSW 4.5 mph7.2 kmh 29.06 in984.1 mb 0.00 in0.0 mm 0.00 in0.0 mm 0.41 in10.4 mm
08:50 PM 57.0°F13.9°C 55.6°F13.1°C 95% 2.6 mph SSW4.2 kmh SSW 3.8 mph6.1 kmh 29.06 in984.1 mb 0.00 in0.0 mm 0.00 in0.0 mm 0.41 in10.4 mm
09:00 PM 57.2°F14.0°C 55.5°F13.1°C 94% 2.7 mph S4.3 kmh S 4.5 mph7.2 kmh 29.07 in984.4 mb 0.00 in0.0 mm 0.00 in0.0 mm 0.41 in10.4 mm
09:10 PM 57.4°F14.1°C 55.7°F13.2°C 94% 4.0 mph SSW6.4 kmh SSW 5.4 mph8.7 kmh 29.08 in984.8 mb 0.00 in0.0 mm 0.00 in0.0 mm 0.41 in10.4 mm
09:20 PM 57.7°F14.3°C 55.7°F13.2°C 93% 3.6 mph SSW5.8 kmh SSW 6.0 mph9.7 kmh 29.08 in984.8 mb 0.00 in0.0 mm 0.00 in0.0 mm 0.41 in10.4 mm
09:30 PM 57.9°F14.4°C 55.6°F13.1°C 92% 4.1 mph SW6.6 kmh SW 5.4 mph8.7 kmh 29.07 in984.4 mb 0.00 in0.0 mm 0.00 in0.0 mm 0.41 in10.4 mm
09:40 PM 58.1°F14.5°C 55.5°F13.1°C 91% 5.1 mph SSW8.2 kmh SSW 7.6 mph12.2 kmh 29.08 in984.8 mb 0.00 in0.0 mm 0.00 in0.0 mm 0.41 in10.4 mm
09:50 PM 57.9°F14.4°C 55.0°F12.8°C 90% 3.9 mph SW6.3 kmh SW 7.6 mph12.2 kmh 29.08 in984.8 mb 0.00 in0.0 mm 0.00 in0.0 mm 0.41 in10.4 mm
10:00 PM 57.9°F14.4°C 55.0°F12.8°C 90% 3.7 mph S6.0 kmh S 6.0 mph9.7 kmh 29.09 in985.1 mb 0.00 in0.0 mm 0.00 in0.0 mm 0.41 in10.4 mm
10:10 PM 58.1°F14.5°C 55.2°F12.9°C 90% 4.3 mph SW6.9 kmh SW 7.6 mph12.2 kmh 29.10 in985.4 mb 0.00 in0.0 mm 0.00 in0.0 mm 0.41 in10.4 mm
10:20 PM 58.1°F14.5°C 55.2°F12.9°C 90% 5.2 mph SW8.4 kmh SW 9.2 mph14.8 kmh 29.10 in985.4 mb 0.00 in0.0 mm 0.00 in0.0 mm 0.41 in10.4 mm
10:30 PM 58.1°F14.5°C 54.9°F12.7°C 89% 5.5 mph SW8.9 kmh SW 8.3 mph13.4 kmh 29.11 in985.8 mb 0.00 in0.0 mm 0.00 in0.0 mm 0.41 in10.4 mm
10:40 PM 58.3°F14.6°C 54.8°F12.7°C 88% 7.1 mph S11.4 kmh S 10.7 mph17.2 kmh 29.11 in985.8 mb 0.00 in0.0 mm 0.00 in0.0 mm 0.41 in10.4 mm
10:50 PM 57.9°F14.4°C 54.4°F12.4°C 88% 4.7 mph SW7.6 kmh SW 8.3 mph13.4 kmh 29.11 in985.8 mb 0.00 in0.0 mm 0.00 in0.0 mm 0.41 in10.4 mm
11:00 PM 57.7°F14.3°C 54.8°F12.7°C 90% 6.3 mph SW10.1 kmh SW 9.8 mph15.8 kmh 29.11 in985.8 mb 0.00 in0.0 mm 0.00 in0.0 mm 0.41 in10.4 mm
11:10 PM 57.7°F14.3°C 54.5°F12.5°C 89% 5.5 mph SW8.9 kmh SW 8.3 mph13.4 kmh 29.12 in986.1 mb 0.00 in0.0 mm 0.00 in0.0 mm 0.41 in10.4 mm
11:20 PM 57.7°F14.3°C 54.2°F12.3°C 88% 4.9 mph WSW7.9 kmh WSW 6.0 mph9.7 kmh 29.13 in986.5 mb 0.00 in0.0 mm 0.00 in0.0 mm 0.41 in10.4 mm
11:30 PM 57.6°F14.2°C 53.7°F12.1°C 87% 6.3 mph WSW10.1 kmh WSW 9.2 mph14.8 kmh 29.12 in986.1 mb 0.00 in0.0 mm 0.00 in0.0 mm 0.41 in10.4 mm
11:40 PM 57.6°F14.2°C 53.4°F11.9°C 86% 5.7 mph WSW9.2 kmh WSW 9.2 mph14.8 kmh 29.13 in986.5 mb 0.00 in0.0 mm 0.00 in0.0 mm 0.41 in10.4 mm
11:50 PM 57.4°F14.1°C 53.2°F11.8°C 86% 5.1 mph SW8.2 kmh SW 9.2 mph14.8 kmh 29.13 in986.5 mb 0.00 in0.0 mm 0.00 in0.0 mm 0.41 in10.4 mm